createdAt,value
2022-11-01T00:00:31.315Z,44.24
2022-11-01T00:01:31.413Z,56.61
2022-11-01T00:02:31.330Z,46.45
2022-11-01T00:03:31.290Z,56.22
2022-11-01T00:04:31.306Z,54.86
2022-11-01T00:05:31.276Z,46.09
2022-11-01T00:06:31.267Z,47.96
2022-11-01T00:07:31.259Z,56.18
2022-11-01T00:08:31.247Z,56.31
2022-11-01T00:09:31.267Z,42.25
2022-11-01T00:10:31.231Z,50.08
2022-11-01T00:11:31.231Z,53.23
2022-11-01T00:12:31.223Z,56.21
2022-11-01T00:13:31.215Z,51.66
2022-11-01T00:14:31.235Z,48.12
2022-11-01T00:15:31.201Z,43.38
2022-11-01T00:16:31.198Z,45.00
2022-11-01T00:17:31.183Z,46.06
2022-11-01T00:18:31.182Z,55.83
2022-11-01T00:19:31.188Z,49.22
2022-11-01T00:20:31.161Z,45.31
2022-11-01T00:21:31.150Z,39.02
2022-11-01T00:22:31.143Z,46.34
2022-11-01T00:23:31.133Z,50.15
2022-11-01T00:24:31.150Z,53.63
2022-11-01T00:25:31.120Z,48.02
2022-11-01T00:26:31.118Z,44.15
2022-11-01T00:27:31.102Z,41.75
2022-11-01T00:28:31.094Z,46.18
2022-11-01T00:29:31.111Z,43.78
2022-11-01T00:30:31.078Z,55.15
2022-11-01T00:31:31.066Z,57.81
2022-11-01T00:32:31.067Z,55.23
2022-11-01T00:33:31.056Z,49.16
2022-11-01T00:34:31.070Z,54.00
2022-11-01T00:35:31.032Z,53.14
2022-11-01T00:36:31.034Z,47.27
2022-11-01T00:37:31.021Z,41.52
2022-11-01T00:38:31.018Z,51.89
2022-11-01T00:39:31.598Z,47.66
2022-11-01T00:40:31.000Z,47.90
2022-11-01T00:41:31.001Z,42.02
2022-11-01T00:42:30.983Z,52.84
2022-11-01T00:43:30.978Z,52.11
2022-11-01T00:44:30.994Z,51.43
2022-11-01T00:45:30.954Z,56.18
2022-11-01T00:46:30.945Z,54.39
2022-11-01T00:47:30.940Z,58.32
2022-11-01T00:48:30.931Z,54.23
2022-11-01T00:49:30.950Z,54.20
2022-11-01T00:50:30.912Z,56.48
2022-11-01T00:51:30.905Z,54.91
2022-11-01T00:52:30.901Z,53.16
2022-11-01T00:53:30.894Z,50.51
2022-11-01T00:54:30.918Z,46.97
2022-11-01T00:55:30.879Z,41.87
2022-11-01T00:56:30.870Z,47.09
2022-11-01T00:57:30.866Z,51.43
2022-11-01T00:58:30.858Z,56.48
2022-11-01T00:59:30.874Z,52.74
2022-11-01T01:00:30.845Z,52.88
2022-11-01T01:01:30.899Z,47.48
2022-11-01T01:02:30.918Z,40.96
2022-11-01T01:03:30.821Z,42.36
2022-11-01T01:04:30.834Z,48.38
2022-11-01T01:05:30.807Z,46.11
2022-11-01T01:06:30.795Z,56.04
2022-11-01T01:07:30.790Z,54.89
2022-11-01T01:08:30.784Z,45.13
2022-11-01T01:09:30.802Z,47.58
2022-11-01T01:10:30.766Z,52.91
2022-11-01T01:11:30.756Z,43.05
2022-11-01T01:12:30.749Z,50.62
2022-11-01T01:13:30.744Z,53.08
2022-11-01T01:14:32.439Z,49.45
2022-11-01T01:15:30.750Z,48.57
2022-11-01T01:16:30.772Z,51.29
2022-11-01T01:17:33.633Z,53.88
2022-11-01T01:18:30.706Z,51.86
2022-11-01T01:19:30.721Z,49.86
2022-11-01T01:20:30.687Z,48.22
2022-11-01T01:21:30.680Z,49.20
2022-11-01T01:22:30.669Z,52.82
2022-11-01T01:23:30.663Z,57.91
2022-11-01T01:24:30.694Z,56.76
2022-11-01T01:25:30.656Z,51.37
2022-11-01T01:26:30.637Z,53.88
2022-11-01T01:27:30.629Z,55.35
2022-11-01T01:28:30.634Z,55.04
2022-11-01T01:29:30.646Z,49.56
2022-11-01T01:30:30.601Z,54.25
2022-11-01T01:31:31.606Z,58.45
2022-11-01T01:32:30.599Z,53.09
2022-11-01T01:33:30.597Z,51.18
2022-11-01T01:34:30.585Z,50.76
2022-11-01T01:35:30.603Z,48.21
2022-11-01T01:36:30.568Z,46.76
2022-11-01T01:37:30.559Z,50.22
2022-11-01T01:38:30.553Z,44.48
2022-11-01T01:39:30.544Z,47.89
2022-11-01T01:40:30.564Z,52.30
2022-11-01T01:41:30.529Z,60.32
2022-11-01T01:42:30.527Z,57.35
2022-11-01T01:43:30.516Z,51.07
2022-11-01T01:44:30.495Z,49.90
2022-11-01T01:45:31.535Z,54.66
2022-11-01T01:46:30.497Z,49.20
2022-11-01T01:47:30.483Z,53.53
2022-11-01T01:48:30.480Z,53.34
2022-11-01T01:49:30.524Z,50.52
2022-11-01T01:50:30.483Z,48.71
2022-11-01T01:51:30.445Z,49.65
2022-11-01T01:52:31.448Z,52.69
2022-11-01T01:53:30.439Z,51.92
2022-11-01T01:54:30.433Z,51.94
2022-11-01T01:55:30.442Z,46.31
2022-11-01T01:56:31.401Z,54.36
2022-11-01T01:57:31.410Z,57.75
2022-11-01T01:58:30.402Z,52.99
2022-11-01T01:59:30.389Z,45.37
2022-11-01T02:00:30.410Z,51.58
2022-11-01T02:01:30.459Z,52.74
2022-11-01T02:02:30.372Z,49.97
2022-11-01T02:03:30.358Z,56.62
2022-11-01T02:04:30.349Z,58.51
2022-11-01T02:05:30.364Z,51.85
2022-11-01T02:06:30.338Z,49.82
2022-11-01T02:07:30.332Z,47.63
2022-11-01T02:08:30.315Z,47.47
2022-11-01T02:09:31.812Z,44.14
2022-11-01T02:10:30.319Z,46.74
2022-11-01T02:11:31.293Z,53.52
2022-11-01T02:12:30.284Z,53.60
2022-11-01T02:13:30.286Z,49.97
2022-11-01T02:14:30.270Z,49.35
2022-11-01T02:15:30.282Z,49.04
2022-11-01T02:16:30.252Z,51.64
2022-11-01T02:17:30.247Z,46.17
2022-11-01T02:18:30.238Z,48.14
2022-11-01T02:19:30.229Z,55.24
2022-11-01T02:20:30.240Z,48.56
2022-11-01T02:21:30.209Z,47.22
2022-11-01T02:22:30.203Z,48.97
2022-11-01T02:23:30.194Z,45.73
2022-11-01T02:24:30.188Z,41.27
2022-11-01T02:25:30.205Z,52.65
2022-11-01T02:26:30.172Z,45.65
2022-11-01T02:27:30.162Z,42.23
2022-11-01T02:28:30.155Z,43.16
2022-11-01T02:29:30.153Z,47.85
2022-11-01T02:30:30.169Z,45.63
2022-11-01T02:31:30.133Z,55.68
2022-11-01T02:32:30.126Z,45.68
2022-11-01T02:33:30.125Z,47.20
2022-11-01T02:34:30.109Z,42.94
2022-11-01T02:35:30.132Z,49.66
2022-11-01T02:36:30.092Z,53.34
2022-11-01T02:37:30.085Z,58.83
2022-11-01T02:38:30.078Z,49.96
2022-11-01T02:39:30.070Z,52.55
2022-11-01T02:40:30.088Z,46.92
2022-11-01T02:41:30.058Z,51.06
2022-11-01T02:42:30.043Z,55.69
2022-11-01T02:43:30.036Z,55.30
2022-11-01T02:44:30.032Z,46.22
2022-11-01T02:45:30.047Z,49.45
2022-11-01T02:46:30.014Z,49.38
2022-11-01T02:47:30.004Z,39.90
2022-11-01T02:48:29.998Z,47.68
2022-11-01T02:49:29.994Z,48.68
2022-11-01T02:50:30.006Z,50.60
2022-11-01T02:51:29.976Z,55.93
2022-11-01T02:52:29.967Z,45.40
2022-11-01T02:53:29.963Z,43.91
2022-11-01T02:54:29.959Z,41.35
2022-11-01T02:55:30.494Z,43.29
2022-11-01T02:56:29.935Z,45.07
2022-11-01T02:57:29.924Z,47.98
2022-11-01T02:58:29.921Z,62.60
2022-11-01T02:59:29.910Z,59.77
2022-11-01T03:00:29.939Z,57.90
2022-11-01T03:01:30.068Z,53.92
2022-11-01T03:02:29.888Z,55.60
2022-11-01T03:03:29.877Z,54.89
2022-11-01T03:04:29.869Z,48.44
2022-11-01T03:05:29.862Z,48.15
2022-11-01T03:06:29.877Z,56.26
2022-11-01T03:07:29.844Z,47.40
2022-11-01T03:08:29.836Z,40.25
2022-11-01T03:09:29.831Z,46.45
2022-11-01T03:10:29.822Z,51.60
2022-11-01T03:11:29.839Z,58.35
2022-11-01T03:13:29.800Z,50.03
2022-11-01T03:14:29.793Z,60.56
2022-11-01T03:15:29.785Z,56.70
2022-11-01T03:16:29.800Z,47.99
2022-11-01T03:17:29.767Z,49.61
2022-11-01T03:18:29.767Z,39.95
2022-11-01T03:19:29.759Z,41.00
2022-11-01T03:20:29.750Z,45.13
2022-11-01T03:21:29.764Z,55.68
2022-11-01T03:22:29.731Z,50.72
2022-11-01T03:23:29.721Z,56.20
2022-11-01T03:24:29.717Z,51.50
2022-11-01T03:25:29.707Z,57.92
2022-11-01T03:26:29.726Z,52.62
2022-11-01T03:27:29.692Z,54.01
2022-11-01T03:28:29.689Z,50.00
2022-11-01T03:29:29.677Z,45.71
2022-11-01T03:30:29.671Z,50.03
2022-11-01T03:31:29.696Z,58.05
2022-11-01T03:32:29.653Z,51.45
2022-11-01T03:33:29.637Z,44.37
2022-11-01T03:34:30.639Z,46.62
2022-11-01T03:35:29.632Z,56.33
2022-11-01T03:36:29.649Z,55.24
2022-11-01T03:37:29.616Z,55.28
2022-11-01T03:38:29.609Z,51.38
2022-11-01T03:39:29.601Z,56.16
2022-11-01T03:40:29.584Z,56.96
2022-11-01T03:41:30.607Z,62.43
2022-11-01T03:42:29.580Z,62.03
2022-11-01T03:43:29.570Z,57.66
2022-11-01T03:44:29.561Z,60.08
2022-11-01T03:45:29.556Z,56.38
2022-11-01T03:46:29.575Z,54.08
2022-11-01T03:47:29.534Z,50.20
2022-11-01T03:48:29.525Z,51.40
2022-11-01T03:49:29.521Z,48.94
2022-11-01T03:50:29.517Z,57.13
2022-11-01T03:51:29.530Z,55.20
2022-11-01T03:52:29.499Z,55.44
2022-11-01T03:53:29.494Z,54.95
2022-11-01T03:54:29.484Z,55.92
2022-11-01T03:55:29.472Z,58.25
2022-11-01T03:56:29.466Z,53.34
2022-11-01T03:57:29.481Z,61.33
2022-11-01T03:58:29.448Z,54.35
2022-11-01T03:59:29.443Z,55.38
2022-11-01T04:00:29.429Z,54.71
2022-11-01T04:01:29.513Z,51.14
2022-11-01T04:02:29.440Z,51.44
2022-11-01T04:03:29.412Z,54.05
2022-11-01T04:04:29.396Z,59.11
2022-11-01T04:05:29.400Z,57.39
2022-11-01T04:06:29.380Z,61.64
2022-11-01T04:07:29.397Z,53.90
2022-11-01T04:08:29.361Z,55.34
2022-11-01T04:09:29.364Z,54.12
2022-11-01T04:10:29.368Z,58.75
2022-11-01T04:11:29.347Z,60.34
2022-11-01T04:12:29.365Z,59.87
2022-11-01T04:13:29.330Z,45.56
2022-11-01T04:14:29.326Z,50.41
2022-11-01T04:15:29.311Z,59.04
2022-11-01T04:16:29.309Z,55.36
2022-11-01T04:17:29.327Z,53.08
2022-11-01T04:18:29.357Z,56.86
2022-11-01T04:19:29.294Z,61.53
2022-11-01T04:20:29.275Z,54.64
2022-11-01T04:21:29.265Z,58.15
2022-11-01T04:22:29.287Z,60.47
2022-11-01T04:23:29.251Z,59.90
2022-11-01T04:24:29.243Z,55.13
2022-11-01T04:25:29.238Z,60.44
2022-11-01T04:26:29.228Z,60.03
2022-11-01T04:27:29.247Z,59.83
2022-11-01T04:28:29.212Z,56.82
2022-11-01T04:29:29.206Z,59.52
2022-11-01T04:30:29.199Z,52.53
2022-11-01T04:31:29.192Z,61.47
2022-11-01T04:32:29.207Z,58.85
2022-11-01T04:33:29.175Z,63.43
2022-11-01T04:34:29.164Z,58.00
2022-11-01T04:35:29.162Z,62.49
2022-11-01T04:36:29.149Z,61.94
2022-11-01T04:37:29.168Z,58.69
2022-11-01T04:38:29.131Z,60.73
2022-11-01T04:39:29.128Z,61.20
2022-11-01T04:40:29.118Z,60.10
2022-11-01T04:41:29.107Z,55.12
2022-11-01T04:42:29.127Z,61.80
2022-11-01T04:43:29.094Z,58.92
2022-11-01T04:44:29.083Z,55.50
2022-11-01T04:45:29.077Z,62.46
2022-11-01T04:46:29.068Z,60.41
2022-11-01T04:47:29.087Z,53.80
2022-11-01T04:48:29.047Z,56.87
2022-11-01T04:49:30.042Z,57.02
2022-11-01T04:50:29.042Z,56.64
2022-11-01T04:51:29.167Z,57.38
2022-11-01T04:52:29.022Z,53.58
2022-11-01T04:53:29.040Z,57.08
2022-11-01T04:54:29.007Z,56.87
2022-11-01T04:55:28.998Z,53.26
2022-11-01T04:56:28.992Z,55.37
2022-11-01T04:57:28.984Z,56.18
2022-11-01T04:58:29.005Z,58.86
2022-11-01T04:59:28.972Z,60.99
2022-11-01T05:00:28.962Z,55.11
2022-11-01T05:01:29.042Z,52.85
2022-11-01T05:02:28.946Z,56.16
2022-11-01T05:03:28.964Z,57.27
2022-11-01T05:04:28.935Z,57.57
2022-11-01T05:05:28.919Z,61.72
2022-11-01T05:06:28.920Z,60.20
2022-11-01T05:07:28.913Z,56.96
2022-11-01T05:08:28.924Z,59.19
2022-11-01T05:09:30.109Z,59.96
2022-11-01T05:10:28.886Z,60.75
2022-11-01T05:11:28.873Z,61.41
2022-11-01T05:12:28.862Z,58.29
2022-11-01T05:13:28.878Z,61.22
2022-11-01T05:14:28.877Z,60.95
2022-11-01T05:15:28.843Z,60.95
2022-11-01T05:16:28.838Z,57.47
2022-11-01T05:17:28.833Z,59.66
2022-11-01T05:18:28.844Z,60.72
2022-11-01T05:19:28.814Z,59.82
2022-11-01T05:20:28.797Z,57.43
2022-11-01T05:21:28.790Z,56.96
2022-11-01T05:22:28.783Z,62.95
2022-11-01T05:23:28.799Z,64.39
2022-11-01T05:24:28.815Z,63.21
2022-11-01T05:25:29.755Z,63.38
2022-11-01T05:26:28.758Z,63.65
2022-11-01T05:27:28.756Z,61.67
2022-11-01T05:28:28.770Z,62.07
2022-11-01T05:29:32.864Z,59.89
2022-11-01T05:30:29.725Z,61.57
2022-11-01T05:31:28.713Z,60.80
2022-11-01T05:32:28.707Z,62.43
2022-11-01T05:33:28.726Z,60.43
2022-11-01T05:34:28.685Z,61.99
2022-11-01T05:35:28.685Z,62.86
2022-11-01T05:36:28.674Z,62.67
2022-11-01T05:37:28.668Z,59.86
2022-11-01T05:38:28.689Z,60.93
2022-11-01T05:39:28.651Z,59.91
2022-11-01T05:40:28.641Z,64.24
2022-11-01T05:41:28.641Z,61.23
2022-11-01T05:42:28.631Z,60.55
2022-11-01T05:43:28.647Z,57.43
2022-11-01T05:44:28.617Z,63.00
2022-11-01T05:45:28.607Z,64.25
2022-11-01T05:46:28.597Z,62.75
2022-11-01T05:47:28.586Z,63.01
2022-11-01T05:48:28.614Z,63.02
2022-11-01T05:49:28.576Z,61.18
2022-11-01T05:50:28.563Z,61.52
2022-11-01T05:51:28.555Z,60.07
2022-11-01T05:52:29.552Z,58.45
2022-11-01T05:53:28.574Z,59.45
2022-11-01T05:54:28.533Z,65.18
2022-11-01T05:55:28.535Z,62.74
2022-11-01T05:56:28.519Z,62.52
2022-11-01T05:57:33.169Z,60.36
2022-11-01T05:58:30.972Z,61.92
2022-11-01T05:59:29.498Z,61.62
2022-11-01T06:00:28.536Z,63.21
2022-11-01T06:01:28.524Z,61.49
2022-11-01T06:02:28.491Z,62.41
2022-11-01T06:03:28.488Z,62.84
2022-11-01T06:04:28.466Z,62.43
2022-11-01T06:05:28.453Z,63.48
2022-11-01T06:06:28.441Z,63.62
2022-11-01T06:07:28.443Z,62.44
2022-11-01T06:08:28.450Z,63.94
2022-11-01T06:09:28.417Z,60.73
2022-11-01T06:10:28.421Z,61.49
2022-11-01T06:11:28.400Z,61.76
2022-11-01T06:12:28.389Z,62.89
2022-11-01T06:13:28.412Z,63.90
2022-11-01T06:14:28.420Z,63.00
2022-11-01T06:15:28.372Z,60.94
2022-11-01T06:16:28.358Z,57.29
2022-11-01T06:17:28.354Z,62.32
2022-11-01T06:18:28.368Z,61.42
2022-11-01T06:19:28.352Z,61.18
2022-11-01T06:20:28.326Z,62.92
2022-11-01T06:21:30.110Z,61.02
2022-11-01T06:22:28.313Z,60.74
2022-11-01T06:23:28.328Z,58.55
2022-11-01T06:24:28.302Z,61.03
2022-11-01T06:25:28.308Z,58.97
2022-11-01T06:26:28.279Z,59.94
2022-11-01T06:27:28.277Z,62.15
2022-11-01T06:28:28.293Z,60.03
2022-11-01T06:29:28.259Z,63.25
2022-11-01T06:30:28.245Z,56.90
2022-11-01T06:31:28.240Z,59.55
2022-11-01T06:32:28.233Z,55.83
2022-11-01T06:33:28.250Z,58.11
2022-11-01T06:34:28.229Z,60.28
2022-11-01T06:35:28.210Z,60.17
2022-11-01T06:36:28.194Z,59.66
2022-11-01T06:37:28.197Z,59.36
2022-11-01T06:38:28.213Z,59.18
2022-11-01T06:39:28.177Z,58.60
2022-11-01T06:40:28.165Z,56.78
2022-11-01T06:41:28.156Z,57.14
2022-11-01T06:42:28.150Z,58.50
2022-11-01T06:43:28.178Z,61.36
2022-11-01T06:44:28.136Z,59.81
2022-11-01T06:45:28.128Z,58.06
2022-11-01T06:46:28.119Z,56.98
2022-11-01T06:47:28.155Z,58.91
2022-11-01T06:48:28.134Z,56.80
2022-11-01T06:49:28.091Z,58.81
2022-11-01T06:50:28.082Z,58.29
2022-11-01T06:51:28.074Z,56.23
2022-11-01T06:52:28.077Z,57.67
2022-11-01T06:53:28.088Z,59.03
2022-11-01T06:54:28.049Z,55.65
2022-11-01T06:55:28.050Z,56.05
2022-11-01T06:56:28.076Z,53.62
2022-11-01T06:57:28.030Z,58.00
2022-11-01T06:58:28.056Z,59.58
2022-11-01T06:59:28.024Z,56.65
2022-11-01T07:00:28.005Z,57.74
2022-11-01T07:01:28.090Z,58.27
2022-11-01T07:02:29.989Z,57.92
2022-11-01T07:03:29.013Z,58.22
2022-11-01T07:04:27.971Z,58.76
2022-11-01T07:05:30.367Z,55.06
2022-11-01T07:06:28.950Z,55.31
2022-11-01T07:07:27.953Z,59.01
2022-11-01T07:08:27.972Z,59.23
2022-11-01T07:09:27.929Z,59.14
2022-11-01T07:10:27.924Z,59.61
2022-11-01T07:11:31.518Z,59.13
2022-11-01T07:12:28.914Z,62.82
2022-11-01T07:13:27.930Z,64.18
2022-11-01T07:14:27.896Z,59.97
2022-11-01T07:15:27.891Z,59.64
2022-11-01T07:16:27.874Z,58.92
2022-11-01T07:17:27.868Z,59.78
2022-11-01T07:18:27.895Z,59.62
2022-11-01T07:19:27.849Z,60.80
2022-11-01T07:20:27.843Z,59.00
2022-11-01T07:21:27.838Z,61.84
2022-11-01T07:22:27.834Z,61.47
2022-11-01T07:23:27.853Z,61.02
2022-11-01T07:24:28.818Z,57.68
2022-11-01T07:25:27.808Z,59.21
2022-11-01T07:26:27.804Z,62.37
2022-11-01T07:27:27.794Z,61.47
2022-11-01T07:28:27.823Z,59.96
2022-11-01T07:29:27.781Z,60.48
2022-11-01T07:30:27.772Z,62.66
2022-11-01T07:31:27.765Z,61.70
2022-11-01T07:32:27.760Z,60.01
2022-11-01T07:33:27.770Z,61.64
2022-11-01T07:34:27.742Z,54.03
2022-11-01T07:35:27.729Z,60.74
2022-11-01T07:36:27.720Z,54.99
2022-11-01T07:38:28.739Z,61.48
2022-11-01T07:39:27.699Z,59.72
2022-11-01T07:40:27.958Z,59.92
2022-11-01T07:41:27.686Z,59.42
2022-11-01T07:42:27.672Z,57.16
2022-11-01T07:43:27.694Z,62.50
2022-11-01T07:44:27.658Z,58.90
2022-11-01T07:45:27.645Z,56.72
2022-11-01T07:46:27.644Z,59.69
2022-11-01T07:47:27.634Z,61.81
2022-11-01T07:48:27.656Z,61.00
2022-11-01T07:49:27.643Z,59.30
2022-11-01T07:50:27.613Z,58.56
2022-11-01T07:51:27.602Z,58.36
2022-11-01T07:52:27.593Z,55.90
2022-11-01T07:53:27.621Z,60.40
2022-11-01T07:54:27.586Z,58.75
2022-11-01T07:55:27.579Z,60.22
2022-11-01T07:56:27.569Z,59.47
2022-11-01T07:57:27.562Z,57.82
2022-11-01T07:58:27.554Z,58.58
2022-11-01T07:59:27.565Z,56.98
2022-11-01T08:00:27.735Z,58.50
2022-11-01T08:01:27.663Z,60.81
2022-11-01T08:02:27.629Z,55.98
2022-11-01T08:03:27.517Z,57.22
2022-11-01T08:04:27.530Z,57.93
2022-11-01T08:05:27.498Z,56.91
2022-11-01T08:06:27.496Z,55.92
2022-11-01T08:07:27.484Z,58.05
2022-11-01T08:08:27.470Z,58.62
2022-11-01T08:09:27.491Z,59.50
2022-11-01T08:10:27.464Z,57.51
2022-11-01T08:11:27.448Z,56.49
2022-11-01T08:12:27.443Z,56.47
2022-11-01T08:13:27.428Z,57.40
2022-11-01T08:14:27.457Z,59.91
2022-11-01T08:15:27.417Z,58.83
2022-11-01T08:16:27.467Z,60.15
2022-11-01T08:17:27.394Z,58.45
2022-11-01T08:18:27.405Z,59.52
2022-11-01T08:19:27.414Z,60.63
2022-11-01T08:20:27.383Z,54.09
2022-11-01T08:21:27.360Z,56.77
2022-11-01T08:22:27.356Z,59.45
2022-11-01T08:23:27.342Z,58.70
2022-11-01T08:24:27.365Z,55.58
2022-11-01T08:25:27.327Z,59.92
2022-11-01T08:26:28.332Z,55.08
2022-11-01T08:27:29.271Z,55.67
2022-11-01T08:28:27.309Z,56.93
2022-11-01T08:29:27.328Z,54.48
2022-11-01T08:30:27.300Z,56.64
2022-11-01T08:31:27.285Z,59.82
2022-11-01T08:32:27.270Z,59.45
2022-11-01T08:33:27.263Z,58.55
2022-11-01T08:34:27.285Z,57.66
2022-11-01T08:35:27.253Z,56.86
2022-11-01T08:36:27.243Z,58.21
2022-11-01T08:37:27.245Z,61.71
2022-11-01T08:38:27.234Z,57.37
2022-11-01T08:39:27.253Z,58.08
2022-11-01T08:40:27.209Z,55.77
2022-11-01T08:41:27.208Z,56.88
2022-11-01T08:42:27.187Z,59.42
2022-11-01T08:43:28.188Z,60.76
2022-11-01T08:44:27.205Z,62.02
2022-11-01T08:45:27.181Z,58.27
2022-11-01T08:46:27.163Z,57.05
2022-11-01T08:47:27.154Z,59.36
2022-11-01T08:48:27.152Z,61.73
2022-11-01T08:49:27.176Z,58.80
2022-11-01T08:50:27.135Z,56.86
2022-11-01T08:51:27.125Z,57.82
2022-11-01T08:52:27.117Z,58.59
2022-11-01T08:53:27.111Z,58.51
2022-11-01T08:54:27.129Z,58.68
2022-11-01T08:55:27.181Z,55.75
2022-11-01T08:56:27.092Z,56.54
2022-11-01T08:57:27.075Z,54.74
2022-11-01T08:58:27.068Z,58.90
2022-11-01T08:59:27.087Z,53.29
2022-11-01T09:00:27.050Z,53.87
2022-11-01T09:01:27.267Z,55.63
2022-11-01T09:02:27.148Z,57.19
2022-11-01T09:03:27.028Z,57.64
2022-11-01T09:04:27.044Z,60.41
2022-11-01T09:05:27.018Z,60.17
2022-11-01T09:06:28.240Z,57.52
2022-11-01T09:07:26.991Z,55.38
2022-11-01T09:08:26.991Z,56.38
2022-11-01T09:09:27.006Z,58.95
2022-11-01T09:10:27.001Z,60.64
2022-11-01T09:11:26.969Z,56.84
2022-11-01T09:12:27.002Z,56.81
2022-11-01T09:13:26.949Z,53.97
2022-11-01T09:14:26.968Z,58.96
2022-11-01T09:15:26.934Z,56.51
2022-11-01T09:16:26.922Z,54.74
2022-11-01T09:17:26.921Z,56.15
2022-11-01T09:18:26.907Z,58.14
2022-11-01T09:19:26.934Z,58.67
2022-11-01T09:20:26.902Z,56.74
2022-11-01T09:21:31.374Z,57.42
2022-11-01T09:22:28.876Z,59.85
2022-11-01T09:23:26.866Z,59.19
2022-11-01T09:24:26.893Z,56.43
2022-11-01T09:25:26.856Z,58.30
2022-11-01T09:26:26.845Z,62.07
2022-11-01T09:27:26.842Z,61.07
2022-11-01T09:28:28.955Z,53.64
2022-11-01T09:29:28.852Z,56.60
2022-11-01T09:30:26.815Z,56.91
2022-11-01T09:31:26.806Z,60.43
2022-11-01T09:32:26.796Z,57.91
2022-11-01T09:33:26.795Z,56.46
2022-11-01T09:34:26.811Z,58.79
2022-11-01T09:35:26.782Z,59.04
2022-11-01T09:36:26.763Z,59.16
2022-11-01T09:37:26.756Z,57.82
2022-11-01T09:38:26.756Z,57.87
2022-11-01T09:39:26.764Z,57.37
2022-11-01T09:40:26.727Z,58.90
2022-11-01T09:41:27.724Z,57.17
2022-11-01T09:42:26.714Z,57.39
2022-11-01T09:43:26.711Z,57.63
2022-11-01T09:44:26.723Z,58.26
2022-11-01T09:45:26.689Z,59.41
2022-11-01T09:46:26.698Z,58.64
2022-11-01T09:47:26.671Z,56.35
2022-11-01T09:48:26.671Z,58.31
2022-11-01T09:49:26.682Z,58.95
2022-11-01T09:50:26.650Z,58.16
2022-11-01T09:51:26.639Z,57.60
2022-11-01T09:52:26.638Z,58.30
2022-11-01T09:53:26.630Z,60.05
2022-11-01T09:54:26.675Z,54.83
2022-11-01T09:55:27.620Z,57.70
2022-11-01T09:56:30.334Z,54.10
2022-11-01T09:57:27.603Z,60.70
2022-11-01T09:58:26.586Z,58.36
2022-11-01T09:59:26.605Z,62.29
2022-11-01T10:00:26.582Z,58.63
2022-11-01T10:01:26.655Z,57.42
2022-11-01T10:02:26.555Z,59.30
2022-11-01T10:03:26.548Z,60.31
2022-11-01T10:04:26.577Z,54.94
2022-11-01T10:05:26.530Z,56.81
2022-11-01T10:06:26.583Z,59.58
2022-11-01T10:07:26.515Z,61.16
2022-11-01T10:08:26.508Z,57.32
2022-11-01T10:09:26.524Z,57.99
2022-11-01T10:10:26.496Z,55.53
2022-11-01T10:11:26.482Z,56.43
2022-11-01T10:12:26.472Z,60.45
2022-11-01T10:13:26.452Z,54.65
2022-11-01T10:14:27.479Z,54.88
2022-11-01T10:15:26.457Z,57.03
2022-11-01T10:16:26.444Z,60.01
2022-11-01T10:17:26.440Z,57.42
2022-11-01T10:18:26.424Z,55.72
2022-11-01T10:19:26.454Z,55.45
2022-11-01T10:20:26.420Z,58.29
2022-11-01T10:21:29.603Z,60.16
2022-11-01T10:22:26.394Z,56.75
2022-11-01T10:23:26.395Z,55.70
2022-11-01T10:24:27.412Z,58.19
2022-11-01T10:25:26.383Z,60.78
2022-11-01T10:26:26.365Z,58.10
2022-11-01T10:27:26.360Z,58.45
2022-11-01T10:28:26.354Z,57.05
2022-11-01T10:29:26.374Z,54.67
2022-11-01T10:30:26.333Z,55.26
2022-11-01T10:31:26.324Z,51.90
2022-11-01T10:32:26.325Z,57.16
2022-11-01T10:33:26.321Z,58.10
2022-11-01T10:34:26.334Z,53.45
2022-11-01T10:35:26.302Z,56.16
2022-11-01T10:36:26.361Z,59.05
2022-11-01T10:37:26.280Z,58.13
2022-11-01T10:38:38.095Z,56.38
2022-11-01T10:40:00.146Z,57.69
2022-11-01T10:40:28.255Z,53.16
2022-11-01T10:41:26.245Z,51.94
2022-11-01T10:42:26.244Z,59.67
2022-11-01T10:43:26.230Z,56.77
2022-11-01T10:44:26.260Z,56.20
2022-11-01T10:45:26.226Z,57.58
2022-11-01T10:46:26.209Z,54.91
2022-11-01T10:47:26.199Z,54.47
2022-11-01T10:48:26.200Z,55.39
2022-11-01T10:49:35.024Z,54.15
2022-11-01T10:50:28.205Z,55.23
2022-11-01T10:51:27.979Z,53.31
2022-11-01T10:52:27.162Z,57.72
2022-11-01T10:53:26.169Z,56.80
2022-11-01T10:54:26.149Z,53.94
2022-11-01T10:55:26.165Z,57.60
2022-11-01T10:56:26.134Z,58.72
2022-11-01T10:57:26.123Z,55.45
2022-11-01T10:58:26.122Z,52.86
2022-11-01T10:59:26.113Z,56.35
2022-11-01T11:00:26.129Z,58.67
2022-11-01T11:01:26.212Z,58.51
2022-11-01T11:02:27.267Z,57.15
2022-11-01T11:03:26.079Z,56.43
2022-11-01T11:04:26.064Z,55.72
2022-11-01T11:05:26.089Z,54.09
2022-11-01T11:06:26.045Z,51.04
2022-11-01T11:07:26.043Z,52.59
2022-11-01T11:08:26.042Z,54.63
2022-11-01T11:09:27.022Z,55.80
2022-11-01T11:10:26.060Z,57.23
2022-11-01T11:11:26.005Z,57.44
2022-11-01T11:12:26.001Z,57.85
2022-11-01T11:13:25.998Z,57.48
2022-11-01T11:14:25.983Z,55.05
2022-11-01T11:15:26.000Z,57.53
2022-11-01T11:16:25.971Z,55.29
2022-11-01T11:17:25.963Z,57.60
2022-11-01T11:18:25.951Z,57.16
2022-11-01T11:19:25.961Z,58.84
2022-11-01T11:20:25.975Z,57.56
2022-11-01T11:21:28.144Z,57.33
2022-11-01T11:22:26.927Z,57.05
2022-11-01T11:23:25.943Z,56.15
2022-11-01T11:24:25.907Z,58.34
2022-11-01T11:25:25.923Z,53.79
2022-11-01T11:26:25.919Z,55.58
2022-11-01T11:27:25.888Z,55.67
2022-11-01T11:28:25.871Z,57.30
2022-11-01T11:29:25.864Z,55.83
2022-11-01T11:30:25.882Z,52.32
2022-11-01T11:31:25.874Z,59.92
2022-11-01T11:32:25.872Z,56.65
2022-11-01T11:33:25.831Z,52.55
2022-11-01T11:34:25.830Z,55.97
2022-11-01T11:35:25.840Z,55.83
2022-11-01T11:36:25.807Z,57.53
2022-11-01T11:37:25.801Z,54.12
2022-11-01T11:38:25.791Z,53.88
2022-11-01T11:39:25.785Z,54.92
2022-11-01T11:40:25.800Z,57.59
2022-11-01T11:41:25.766Z,56.93
2022-11-01T11:42:25.764Z,58.36
2022-11-01T11:43:25.757Z,56.37
2022-11-01T11:44:25.749Z,57.72
2022-11-01T11:45:25.761Z,56.17
2022-11-01T11:46:25.729Z,55.60
2022-11-01T11:47:25.718Z,55.93
2022-11-01T11:48:25.712Z,57.31
2022-11-01T11:49:25.700Z,56.48
2022-11-01T11:50:25.731Z,54.80
2022-11-01T11:51:25.683Z,53.62
2022-11-01T11:52:28.721Z,51.64
2022-11-01T11:53:26.655Z,53.84
2022-11-01T11:54:26.662Z,53.18
2022-11-01T11:55:25.680Z,57.46
2022-11-01T11:56:25.645Z,57.28
2022-11-01T11:57:25.638Z,53.74
2022-11-01T11:58:25.629Z,57.21
2022-11-01T11:59:25.625Z,55.07
2022-11-01T12:00:25.642Z,56.31
2022-11-01T12:01:25.646Z,53.27
2022-11-01T12:02:25.671Z,53.99
2022-11-01T12:03:25.594Z,55.08
2022-11-01T12:04:25.582Z,57.22
2022-11-01T12:05:25.611Z,56.35
2022-11-01T12:06:25.570Z,55.06
2022-11-01T12:07:25.584Z,54.71
2022-11-01T12:08:25.554Z,55.39
2022-11-01T12:09:25.552Z,53.93
2022-11-01T12:10:25.567Z,54.82
2022-11-01T12:11:25.537Z,55.29
2022-11-01T12:12:25.532Z,56.37
2022-11-01T12:13:25.521Z,57.85
2022-11-01T12:14:25.514Z,57.76
2022-11-01T12:15:25.534Z,57.68
2022-11-01T12:16:25.581Z,54.53
2022-11-01T12:17:25.490Z,54.29
2022-11-01T12:18:25.484Z,57.69
2022-11-01T12:19:25.470Z,55.80
2022-11-01T12:20:25.462Z,58.90
2022-11-01T12:21:25.482Z,58.42
2022-11-01T12:22:25.446Z,57.01
2022-11-01T12:23:25.437Z,56.17
2022-11-01T12:24:25.431Z,54.77
2022-11-01T12:25:25.449Z,54.96
2022-11-01T12:26:25.416Z,59.73
2022-11-01T12:27:25.407Z,55.46
2022-11-01T12:28:25.402Z,55.68
2022-11-01T12:29:25.389Z,55.89
2022-11-01T12:30:25.409Z,54.66
2022-11-01T12:31:30.304Z,53.41
2022-11-01T12:32:27.363Z,57.91
2022-11-01T12:33:25.364Z,60.45
2022-11-01T12:34:25.350Z,59.25
2022-11-01T12:35:25.372Z,57.81
2022-11-01T12:36:25.333Z,57.64
2022-11-01T12:37:25.328Z,57.66
2022-11-01T12:38:25.320Z,67.43
2022-11-01T12:39:25.309Z,64.55
2022-11-01T12:40:25.335Z,56.23
2022-11-01T12:41:25.296Z,56.59
2022-11-01T12:42:25.292Z,57.25
2022-11-01T12:43:25.281Z,57.19
2022-11-01T12:44:25.269Z,56.79
2022-11-01T12:45:25.266Z,53.35
2022-11-01T12:46:25.279Z,53.70
2022-11-01T12:47:25.253Z,56.34
2022-11-01T12:48:25.241Z,69.72
2022-11-01T12:49:25.232Z,61.68
2022-11-01T12:50:25.224Z,68.88
2022-11-01T12:51:25.240Z,66.61
2022-11-01T12:52:25.210Z,64.66
2022-11-01T12:53:25.204Z,63.89
2022-11-01T12:54:25.203Z,63.79